sensor_id;sensor_type;location;lat;lon;timestamp;temperature;humidity
18998;DHT22;9632;51.018;4.284;2022-08-03T00:02:22;23.50;99.90
18998;DHT22;9632;51.018;4.284;2022-08-03T00:04:48;23.50;99.90
18998;DHT22;9632;51.018;4.284;2022-08-03T00:07:14;23.50;99.90
18998;DHT22;9632;51.018;4.284;2022-08-03T00:09:39;23.40;99.90
18998;DHT22;9632;51.018;4.284;2022-08-03T00:12:05;23.50;99.90
18998;DHT22;9632;51.018;4.284;2022-08-03T00:14:31;23.40;99.90
18998;DHT22;9632;51.018;4.284;2022-08-03T00:16:57;23.40;99.90
18998;DHT22;9632;51.018;4.284;2022-08-03T00:19:22;23.30;99.90
18998;DHT22;9632;51.018;4.284;2022-08-03T00:21:48;23.30;99.90
18998;DHT22;9632;51.018;4.284;2022-08-03T00:24:14;23.30;99.90
18998;DHT22;9632;51.018;4.284;2022-08-03T00:26:39;23.30;99.90
18998;DHT22;9632;51.018;4.284;2022-08-03T00:29:05;23.30;99.90
18998;DHT22;9632;51.018;4.284;2022-08-03T00:31:30;23.20;99.90
18998;DHT22;9632;51.018;4.284;2022-08-03T00:33:56;23.20;99.90
18998;DHT22;9632;51.018;4.284;2022-08-03T00:36:22;23.20;99.90
18998;DHT22;9632;51.018;4.284;2022-08-03T00:38:47;23.20;99.90
18998;DHT22;9632;51.018;4.284;2022-08-03T00:41:13;23.10;99.90
18998;DHT22;9632;51.018;4.284;2022-08-03T00:43:39;23.10;99.90
18998;DHT22;9632;51.018;4.284;2022-08-03T00:46:04;23.10;99.90
18998;DHT22;9632;51.018;4.284;2022-08-03T00:48:30;23.10;99.90
18998;DHT22;9632;51.018;4.284;2022-08-03T00:50:56;23.10;99.90
18998;DHT22;9632;51.018;4.284;2022-08-03T00:53:22;23.00;99.90
18998;DHT22;9632;51.018;4.284;2022-08-03T00:55:48;22.90;99.90
18998;DHT22;9632;51.018;4.284;2022-08-03T00:58:14;22.90;99.90
18998;DHT22;9632;51.018;4.284;2022-08-03T01:00:40;22.90;99.90
18998;DHT22;9632;51.018;4.284;2022-08-03T01:03:08;22.80;99.90
18998;DHT22;9632;51.018;4.284;2022-08-03T01:05:57;22.80;99.90
18998;DHT22;9632;51.018;4.284;2022-08-03T01:11:39;22.70;99.90
18998;DHT22;9632;51.018;4.284;2022-08-03T01:14:32;22.70;99.90
18998;DHT22;9632;51.018;4.284;2022-08-03T01:17:06;22.70;99.90
18998;DHT22;9632;51.018;4.284;2022-08-03T01:30:31;22.50;99.90
18998;DHT22;9632;51.018;4.284;2022-08-03T01:33:21;22.50;99.90
18998;DHT22;9632;51.018;4.284;2022-08-03T01:36:00;22.50;99.90
18998;DHT22;9632;51.018;4.284;2022-08-03T01:38:35;22.50;99.90
18998;DHT22;9632;51.018;4.284;2022-08-03T01:41:10;22.40;99.90
18998;DHT22;9632;51.018;4.284;2022-08-03T01:43:39;22.40;99.90
18998;DHT22;9632;51.018;4.284;2022-08-03T01:46:07;22.40;99.90
18998;DHT22;9632;51.018;4.284;2022-08-03T01:48:36;22.30;99.90
18998;DHT22;9632;51.018;4.284;2022-08-03T01:51:05;22.30;99.90
18998;DHT22;9632;51.018;4.284;2022-08-03T01:53:33;22.30;99.90
18998;DHT22;9632;51.018;4.284;2022-08-03T01:56:01;22.20;99.90
18998;DHT22;9632;51.018;4.284;2022-08-03T01:58:28;22.20;99.90
18998;DHT22;9632;51.018;4.284;2022-08-03T02:00:56;22.20;99.90
18998;DHT22;9632;51.018;4.284;2022-08-03T02:03:26;22.20;99.90
18998;DHT22;9632;51.018;4.284;2022-08-03T02:05:53;22.20;99.90
18998;DHT22;9632;51.018;4.284;2022-08-03T02:08:23;22.20;99.90
18998;DHT22;9632;51.018;4.284;2022-08-03T02:10:51;22.20;99.90
18998;DHT22;9632;51.018;4.284;2022-08-03T02:13:18;22.10;99.90
18998;DHT22;9632;51.018;4.284;2022-08-03T02:15:45;22.10;99.90
18998;DHT22;9632;51.018;4.284;2022-08-03T02:18:12;22.10;99.90
18998;DHT22;9632;51.018;4.284;2022-08-03T02:20:41;22.10;99.90
18998;DHT22;9632;51.018;4.284;2022-08-03T02:23:08;22.10;99.90
18998;DHT22;9632;51.018;4.284;2022-08-03T02:25:43;22.10;99.90
18998;DHT22;9632;51.018;4.284;2022-08-03T02:28:16;22.00;99.90
18998;DHT22;9632;51.018;4.284;2022-08-03T02:30:45;22.00;99.90
18998;DHT22;9632;51.018;4.284;2022-08-03T02:33:18;22.00;99.90
18998;DHT22;9632;51.018;4.284;2022-08-03T02:35:44;22.00;99.90
18998;DHT22;9632;51.018;4.284;2022-08-03T02:38:14;21.90;99.90
18998;DHT22;9632;51.018;4.284;2022-08-03T02:40:42;21.90;99.90
18998;DHT22;9632;51.018;4.284;2022-08-03T02:43:11;21.80;99.90
18998;DHT22;9632;51.018;4.284;2022-08-03T02:45:44;21.80;99.90
18998;DHT22;9632;51.018;4.284;2022-08-03T02:48:11;21.80;99.90
18998;DHT22;9632;51.018;4.284;2022-08-03T02:50:41;21.80;99.90
18998;DHT22;9632;51.018;4.284;2022-08-03T02:53:09;21.80;99.90
18998;DHT22;9632;51.018;4.284;2022-08-03T02:55:36;21.80;99.90
18998;DHT22;9632;51.018;4.284;2022-08-03T02:58:04;21.70;99.90
18998;DHT22;9632;51.018;4.284;2022-08-03T03:00:32;21.70;99.90
18998;DHT22;9632;51.018;4.284;2022-08-03T03:03:01;21.70;99.90
18998;DHT22;9632;51.018;4.284;2022-08-03T03:05:27;21.60;99.90
18998;DHT22;9632;51.018;4.284;2022-08-03T03:07:54;21.70;99.90
18998;DHT22;9632;51.018;4.284;2022-08-03T03:10:24;21.60;99.90
18998;DHT22;9632;51.018;4.284;2022-08-03T03:12:55;21.60;99.90
18998;DHT22;9632;51.018;4.284;2022-08-03T03:15:23;21.60;99.90
18998;DHT22;9632;51.018;4.284;2022-08-03T03:17:50;21.50;99.90
18998;DHT22;9632;51.018;4.284;2022-08-03T03:20:19;21.50;99.90
18998;DHT22;9632;51.018;4.284;2022-08-03T03:22:47;21.50;99.90
18998;DHT22;9632;51.018;4.284;2022-08-03T03:25:14;21.40;99.90
18998;DHT22;9632;51.018;4.284;2022-08-03T03:27:40;21.40;99.90
18998;DHT22;9632;51.018;4.284;2022-08-03T03:30:06;21.40;99.90
18998;DHT22;9632;51.018;4.284;2022-08-03T03:32:32;21.30;99.90
18998;DHT22;9632;51.018;4.284;2022-08-03T03:34:58;21.30;99.90
18998;DHT22;9632;51.018;4.284;2022-08-03T03:37:26;21.30;99.90
18998;DHT22;9632;51.018;4.284;2022-08-03T03:39:54;21.30;99.90
18998;DHT22;9632;51.018;4.284;2022-08-03T03:42:21;21.20;99.90
18998;DHT22;9632;51.018;4.284;2022-08-03T03:44:46;21.30;99.90
18998;DHT22;9632;51.018;4.284;2022-08-03T03:47:12;21.20;99.90
18998;DHT22;9632;51.018;4.284;2022-08-03T03:49:39;21.10;99.90
18998;DHT22;9632;51.018;4.284;2022-08-03T03:52:05;21.10;99.90
18998;DHT22;9632;51.018;4.284;2022-08-03T03:54:44;21.00;99.90
18998;DHT22;9632;51.018;4.284;2022-08-03T03:57:10;21.00;99.90
18998;DHT22;9632;51.018;4.284;2022-08-03T03:59:42;21.00;99.90
18998;DHT22;9632;51.018;4.284;2022-08-03T04:02:09;21.00;99.90
18998;DHT22;9632;51.018;4.284;2022-08-03T04:04:36;21.00;99.90
18998;DHT22;9632;51.018;4.284;2022-08-03T04:07:23;21.00;99.90
18998;DHT22;9632;51.018;4.284;2022-08-03T04:10:21;21.00;99.90
18998;DHT22;9632;51.018;4.284;2022-08-03T04:13:08;20.90;99.90
18998;DHT22;9632;51.018;4.284;2022-08-03T04:15:36;20.90;99.90
18998;DHT22;9632;51.018;4.284;2022-08-03T04:18:05;20.90;99.90
18998;DHT22;9632;51.018;4.284;2022-08-03T04:20:32;20.90;99.90
18998;DHT22;9632;51.018;4.284;2022-08-03T04:22:59;20.90;99.90
18998;DHT22;9632;51.018;4.284;2022-08-03T04:25:30;20.90;99.90
18998;DHT22;9632;51.018;4.284;2022-08-03T04:27:59;20.80;99.90
18998;DHT22;9632;51.018;4.284;2022-08-03T04:30:27;20.80;99.90
18998;DHT22;9632;51.018;4.284;2022-08-03T04:32:57;20.80;99.90
18998;DHT22;9632;51.018;4.284;2022-08-03T04:35:32;20.80;99.90
18998;DHT22;9632;51.018;4.284;2022-08-03T04:38:05;20.80;99.90
18998;DHT22;9632;51.018;4.284;2022-08-03T04:40:36;20.90;99.90
18998;DHT22;9632;51.018;4.284;2022-08-03T04:43:04;20.90;99.90
18998;DHT22;9632;51.018;4.284;2022-08-03T04:45:31;21.00;99.90
18998;DHT22;9632;51.018;4.284;2022-08-03T04:47:58;21.10;99.90
18998;DHT22;9632;51.018;4.284;2022-08-03T04:50:25;21.10;99.90
18998;DHT22;9632;51.018;4.284;2022-08-03T04:52:52;21.20;99.90
18998;DHT22;9632;51.018;4.284;2022-08-03T04:55:31;21.20;99.90
18998;DHT22;9632;51.018;4.284;2022-08-03T04:57:58;21.40;99.90
18998;DHT22;9632;51.018;4.284;2022-08-03T05:00:24;21.50;99.90
18998;DHT22;9632;51.018;4.284;2022-08-03T05:02:50;21.60;99.90
18998;DHT22;9632;51.018;4.284;2022-08-03T05:05:16;21.80;99.90
18998;DHT22;9632;51.018;4.284;2022-08-03T05:07:42;21.90;99.90
18998;DHT22;9632;51.018;4.284;2022-08-03T05:10:09;22.20;99.90
18998;DHT22;9632;51.018;4.284;2022-08-03T05:12:35;22.40;99.90
18998;DHT22;9632;51.018;4.284;2022-08-03T05:15:01;22.60;99.90
18998;DHT22;9632;51.018;4.284;2022-08-03T05:17:27;22.90;99.90
18998;DHT22;9632;51.018;4.284;2022-08-03T05:19:53;23.10;99.90
18998;DHT22;9632;51.018;4.284;2022-08-03T05:22:19;23.40;99.90
18998;DHT22;9632;51.018;4.284;2022-08-03T05:24:45;23.60;99.90
18998;DHT22;9632;51.018;4.284;2022-08-03T05:27:11;23.90;99.90
18998;DHT22;9632;51.018;4.284;2022-08-03T05:29:42;24.10;99.90
18998;DHT22;9632;51.018;4.284;2022-08-03T05:32:08;24.40;99.90
18998;DHT22;9632;51.018;4.284;2022-08-03T05:34:33;24.60;99.90
18998;DHT22;9632;51.018;4.284;2022-08-03T05:36:59;24.80;99.90
18998;DHT22;9632;51.018;4.284;2022-08-03T05:39:25;25.00;99.90
18998;DHT22;9632;51.018;4.284;2022-08-03T05:41:50;25.20;99.90
18998;DHT22;9632;51.018;4.284;2022-08-03T05:44:16;25.40;99.90
18998;DHT22;9632;51.018;4.284;2022-08-03T05:46:42;25.60;99.90
18998;DHT22;9632;51.018;4.284;2022-08-03T05:49:07;25.80;99.90
18998;DHT22;9632;51.018;4.284;2022-08-03T05:51:33;25.90;99.90
18998;DHT22;9632;51.018;4.284;2022-08-03T05:53:59;26.00;99.90
18998;DHT22;9632;51.018;4.284;2022-08-03T05:56:25;26.20;99.90
18998;DHT22;9632;51.018;4.284;2022-08-03T05:58:51;26.30;99.90
18998;DHT22;9632;51.018;4.284;2022-08-03T06:01:18;26.50;99.90
18998;DHT22;9632;51.018;4.284;2022-08-03T06:03:46;26.60;99.90
18998;DHT22;9632;51.018;4.284;2022-08-03T06:06:12;26.70;99.90
18998;DHT22;9632;51.018;4.284;2022-08-03T06:08:39;26.80;99.90
18998;DHT22;9632;51.018;4.284;2022-08-03T06:11:05;26.90;99.90
18998;DHT22;9632;51.018;4.284;2022-08-03T06:13:31;27.00;99.90
18998;DHT22;9632;51.018;4.284;2022-08-03T06:15:56;27.10;99.90
18998;DHT22;9632;51.018;4.284;2022-08-03T06:18:22;27.10;99.90
18998;DHT22;9632;51.018;4.284;2022-08-03T06:20:49;27.20;99.90
18998;DHT22;9632;51.018;4.284;2022-08-03T06:23:15;27.30;99.90
18998;DHT22;9632;51.018;4.284;2022-08-03T06:25:41;27.40;99.90
18998;DHT22;9632;51.018;4.284;2022-08-03T06:28:07;27.40;99.90
18998;DHT22;9632;51.018;4.284;2022-08-03T06:30:32;27.50;99.90
18998;DHT22;9632;51.018;4.284;2022-08-03T06:32:59;27.80;99.90
18998;DHT22;9632;51.018;4.284;2022-08-03T06:35:25;27.60;99.90
18998;DHT22;9632;51.018;4.284;2022-08-03T06:37:52;27.70;99.90
18998;DHT22;9632;51.018;4.284;2022-08-03T06:40:20;27.70;99.90
18998;DHT22;9632;51.018;4.284;2022-08-03T06:42:53;27.80;99.90
18998;DHT22;9632;51.018;4.284;2022-08-03T06:45:19;27.90;99.90
18998;DHT22;9632;51.018;4.284;2022-08-03T06:47:45;27.90;99.90
18998;DHT22;9632;51.018;4.284;2022-08-03T06:50:11;28.00;99.90
18998;DHT22;9632;51.018;4.284;2022-08-03T06:52:37;28.20;99.90
18998;DHT22;9632;51.018;4.284;2022-08-03T06:55:03;28.40;99.90
18998;DHT22;9632;51.018;4.284;2022-08-03T06:57:29;28.50;99.90
18998;DHT22;9632;51.018;4.284;2022-08-03T06:59:55;28.60;99.90
18998;DHT22;9632;51.018;4.284;2022-08-03T07:02:27;28.70;99.90
18998;DHT22;9632;51.018;4.284;2022-08-03T07:04:52;28.70;99.90
18998;DHT22;9632;51.018;4.284;2022-08-03T07:07:18;28.60;99.90
18998;DHT22;9632;51.018;4.284;2022-08-03T07:09:45;28.70;99.90
18998;DHT22;9632;51.018;4.284;2022-08-03T07:12:11;28.70;99.90
18998;DHT22;9632;51.018;4.284;2022-08-03T07:14:36;28.90;99.90
18998;DHT22;9632;51.018;4.284;2022-08-03T07:17:02;29.10;99.90
18998;DHT22;9632;51.018;4.284;2022-08-03T07:19:28;29.20;99.90
18998;DHT22;9632;51.018;4.284;2022-08-03T07:21:53;29.40;99.90
18998;DHT22;9632;51.018;4.284;2022-08-03T07:24:19;29.40;99.90
18998;DHT22;9632;51.018;4.284;2022-08-03T07:26:44;29.50;99.90
18998;DHT22;9632;51.018;4.284;2022-08-03T07:29:10;29.60;99.90
18998;DHT22;9632;51.018;4.284;2022-08-03T07:31:36;29.60;99.90
18998;DHT22;9632;51.018;4.284;2022-08-03T07:34:01;29.50;99.90
18998;DHT22;9632;51.018;4.284;2022-08-03T07:36:27;29.60;99.90
18998;DHT22;9632;51.018;4.284;2022-08-03T07:38:52;29.70;99.90
18998;DHT22;9632;51.018;4.284;2022-08-03T07:41:18;29.80;99.90
18998;DHT22;9632;51.018;4.284;2022-08-03T07:43:44;29.80;99.90
18998;DHT22;9632;51.018;4.284;2022-08-03T07:46:09;29.90;99.90
18998;DHT22;9632;51.018;4.284;2022-08-03T07:48:35;30.00;99.90
18998;DHT22;9632;51.018;4.284;2022-08-03T07:51:01;30.10;99.90
18998;DHT22;9632;51.018;4.284;2022-08-03T07:53:27;30.00;99.90
18998;DHT22;9632;51.018;4.284;2022-08-03T07:55:53;30.10;99.90
18998;DHT22;9632;51.018;4.284;2022-08-03T07:58:19;30.20;99.90
18998;DHT22;9632;51.018;4.284;2022-08-03T08:00:45;30.30;99.90
18998;DHT22;9632;51.018;4.284;2022-08-03T08:03:11;30.30;99.90
18998;DHT22;9632;51.018;4.284;2022-08-03T08:05:37;30.30;99.90
18998;DHT22;9632;51.018;4.284;2022-08-03T08:08:03;30.30;99.90
18998;DHT22;9632;51.018;4.284;2022-08-03T08:10:29;30.40;99.90
18998;DHT22;9632;51.018;4.284;2022-08-03T08:12:57;30.40;99.90
18998;DHT22;9632;51.018;4.284;2022-08-03T08:15:23;30.50;99.90
18998;DHT22;9632;51.018;4.284;2022-08-03T08:17:51;30.60;99.90
18998;DHT22;9632;51.018;4.284;2022-08-03T08:20:32;30.70;99.90
18998;DHT22;9632;51.018;4.284;2022-08-03T08:23:00;30.70;99.90
18998;DHT22;9632;51.018;4.284;2022-08-03T08:25:27;30.60;99.90
18998;DHT22;9632;51.018;4.284;2022-08-03T08:27:53;30.50;99.90
18998;DHT22;9632;51.018;4.284;2022-08-03T08:30:21;30.50;99.90
18998;DHT22;9632;51.018;4.284;2022-08-03T08:32:47;30.70;99.90
18998;DHT22;9632;51.018;4.284;2022-08-03T08:35:14;30.70;99.90
18998;DHT22;9632;51.018;4.284;2022-08-03T08:37:40;30.90;99.90
18998;DHT22;9632;51.018;4.284;2022-08-03T08:40:07;30.90;99.90
18998;DHT22;9632;51.018;4.284;2022-08-03T08:42:33;31.10;99.90
18998;DHT22;9632;51.018;4.284;2022-08-03T08:45:01;31.00;99.90
18998;DHT22;9632;51.018;4.284;2022-08-03T08:47:30;30.90;99.90
18998;DHT22;9632;51.018;4.284;2022-08-03T08:49:57;30.90;99.90
18998;DHT22;9632;51.018;4.284;2022-08-03T08:52:25;30.90;99.90
18998;DHT22;9632;51.018;4.284;2022-08-03T08:55:03;30.90;99.90
18998;DHT22;9632;51.018;4.284;2022-08-03T08:57:33;30.90;99.90
18998;DHT22;9632;51.018;4.284;2022-08-03T09:00:00;30.90;99.90
18998;DHT22;9632;51.018;4.284;2022-08-03T09:02:29;30.90;99.90
18998;DHT22;9632;51.018;4.284;2022-08-03T09:04:56;31.00;99.90
18998;DHT22;9632;51.018;4.284;2022-08-03T09:07:22;31.10;99.90
18998;DHT22;9632;51.018;4.284;2022-08-03T09:09:48;31.20;99.90
18998;DHT22;9632;51.018;4.284;2022-08-03T09:12:14;31.30;99.90
18998;DHT22;9632;51.018;4.284;2022-08-03T09:14:40;31.20;99.90
18998;DHT22;9632;51.018;4.284;2022-08-03T09:17:06;31.10;99.90
18998;DHT22;9632;51.018;4.284;2022-08-03T09:19:34;31.10;99.90
18998;DHT22;9632;51.018;4.284;2022-08-03T09:22:09;31.30;99.90
18998;DHT22;9632;51.018;4.284;2022-08-03T09:24:35;31.40;99.90
18998;DHT22;9632;51.018;4.284;2022-08-03T09:27:01;31.50;99.90
18998;DHT22;9632;51.018;4.284;2022-08-03T09:29:31;31.50;99.90
18998;DHT22;9632;51.018;4.284;2022-08-03T09:32:02;31.50;99.90
18998;DHT22;9632;51.018;4.284;2022-08-03T09:34:29;31.50;99.90
18998;DHT22;9632;51.018;4.284;2022-08-03T09:36:55;31.40;99.90
18998;DHT22;9632;51.018;4.284;2022-08-03T09:39:25;31.60;99.90
18998;DHT22;9632;51.018;4.284;2022-08-03T09:44:42;31.60;99.90
18998;DHT22;9632;51.018;4.284;2022-08-03T09:47:12;31.70;99.90
18998;DHT22;9632;51.018;4.284;2022-08-03T09:49:39;31.80;99.90
18998;DHT22;9632;51.018;4.284;2022-08-03T09:52:18;31.80;99.90
18998;DHT22;9632;51.018;4.284;2022-08-03T09:54:52;32.00;99.90
18998;DHT22;9632;51.018;4.284;2022-08-03T09:57:23;32.10;99.90
18998;DHT22;9632;51.018;4.284;2022-08-03T09:59:50;32.10;99.90
18998;DHT22;9632;51.018;4.284;2022-08-03T10:02:23;32.20;99.90
18998;DHT22;9632;51.018;4.284;2022-08-03T10:04:49;32.20;99.90
18998;DHT22;9632;51.018;4.284;2022-08-03T10:07:19;32.30;99.90
18998;DHT22;9632;51.018;4.284;2022-08-03T10:09:58;32.40;99.90
18998;DHT22;9632;51.018;4.284;2022-08-03T10:12:24;32.50;99.90
18998;DHT22;9632;51.018;4.284;2022-08-03T10:14:50;32.60;99.90
18998;DHT22;9632;51.018;4.284;2022-08-03T10:17:17;32.60;99.90
18998;DHT22;9632;51.018;4.284;2022-08-03T10:19:43;32.60;99.90
18998;DHT22;9632;51.018;4.284;2022-08-03T10:22:33;32.60;99.30
18998;DHT22;9632;51.018;4.284;2022-08-03T10:25:02;32.70;99.90
18998;DHT22;9632;51.018;4.284;2022-08-03T10:27:33;32.70;98.80
18998;DHT22;9632;51.018;4.284;2022-08-03T10:30:05;32.80;98.70
18998;DHT22;9632;51.018;4.284;2022-08-03T10:35:06;32.90;99.50
18998;DHT22;9632;51.018;4.284;2022-08-03T10:37:39;32.80;98.40
18998;DHT22;9632;51.018;4.284;2022-08-03T10:40:07;32.90;98.50
18998;DHT22;9632;51.018;4.284;2022-08-03T10:42:34;32.90;98.20
18998;DHT22;9632;51.018;4.284;2022-08-03T10:45:07;32.90;98.20
18998;DHT22;9632;51.018;4.284;2022-08-03T10:47:34;32.90;98.50
18998;DHT22;9632;51.018;4.284;2022-08-03T10:50:01;33.00;97.90
18998;DHT22;9632;51.018;4.284;2022-08-03T10:52:26;33.10;98.50
18998;DHT22;9632;51.018;4.284;2022-08-03T10:54:52;32.90;97.20
18998;DHT22;9632;51.018;4.284;2022-08-03T10:57:53;33.00;98.00
18998;DHT22;9632;51.018;4.284;2022-08-03T11:00:22;33.20;98.70
18998;DHT22;9632;51.018;4.284;2022-08-03T11:03:07;33.30;98.10
18998;DHT22;9632;51.018;4.284;2022-08-03T11:05:36;33.20;97.90
18998;DHT22;9632;51.018;4.284;2022-08-03T11:08:28;33.30;98.40
18998;DHT22;9632;51.018;4.284;2022-08-03T11:14:13;33.30;97.60
18998;DHT22;9632;51.018;4.284;2022-08-03T11:19:14;33.50;97.90
18998;DHT22;9632;51.018;4.284;2022-08-03T11:30:09;33.60;97.20
18998;DHT22;9632;51.018;4.284;2022-08-03T11:35:20;33.70;96.20
18998;DHT22;9632;51.018;4.284;2022-08-03T11:40:50;33.80;96.80
18998;DHT22;9632;51.018;4.284;2022-08-03T11:46:08;33.80;95.60
18998;DHT22;9632;51.018;4.284;2022-08-03T11:48:43;33.80;96.20
18998;DHT22;9632;51.018;4.284;2022-08-03T11:53:59;33.80;95.70
18998;DHT22;9632;51.018;4.284;2022-08-03T11:56:26;33.80;95.60
18998;DHT22;9632;51.018;4.284;2022-08-03T11:58:56;33.80;96.10
18998;DHT22;9632;51.018;4.284;2022-08-03T12:01:23;33.90;95.70
18998;DHT22;9632;51.018;4.284;2022-08-03T12:03:50;34.00;95.40
18998;DHT22;9632;51.018;4.284;2022-08-03T12:06:17;34.00;95.60
18998;DHT22;9632;51.018;4.284;2022-08-03T12:08:44;34.10;95.40
18998;DHT22;9632;51.018;4.284;2022-08-03T12:11:11;34.10;94.60
18998;DHT22;9632;51.018;4.284;2022-08-03T12:13:43;34.10;94.40
18998;DHT22;9632;51.018;4.284;2022-08-03T12:16:11;34.10;94.60
18998;DHT22;9632;51.018;4.284;2022-08-03T12:18:41;34.10;94.20
18998;DHT22;9632;51.018;4.284;2022-08-03T12:21:10;34.10;93.90
18998;DHT22;9632;51.018;4.284;2022-08-03T12:23:37;34.10;93.90
18998;DHT22;9632;51.018;4.284;2022-08-03T12:26:07;34.10;94.20
18998;DHT22;9632;51.018;4.284;2022-08-03T12:28:33;34.20;93.30
18998;DHT22;9632;51.018;4.284;2022-08-03T12:31:06;34.20;93.50
18998;DHT22;9632;51.018;4.284;2022-08-03T12:33:57;34.10;94.00
18998;DHT22;9632;51.018;4.284;2022-08-03T12:36:22;34.10;93.60
18998;DHT22;9632;51.018;4.284;2022-08-03T12:39:02;34.10;93.50
18998;DHT22;9632;51.018;4.284;2022-08-03T12:41:36;34.20;93.50
18998;DHT22;9632;51.018;4.284;2022-08-03T12:44:03;34.20;93.20
18998;DHT22;9632;51.018;4.284;2022-08-03T12:46:37;34.20;93.90
18998;DHT22;9632;51.018;4.284;2022-08-03T12:49:09;34.20;93.40
18998;DHT22;9632;51.018;4.284;2022-08-03T12:54:14;34.00;93.10
18998;DHT22;9632;51.018;4.284;2022-08-03T13:02:04;33.80;93.00
18998;DHT22;9632;51.018;4.284;2022-08-03T13:04:34;33.90;92.90
18998;DHT22;9632;51.018;4.284;2022-08-03T13:07:05;34.00;93.60
18998;DHT22;9632;51.018;4.284;2022-08-03T13:09:41;34.00;93.30
18998;DHT22;9632;51.018;4.284;2022-08-03T13:12:18;34.00;93.20
18998;DHT22;9632;51.018;4.284;2022-08-03T13:14:46;34.00;92.50
18998;DHT22;9632;51.018;4.284;2022-08-03T13:17:12;33.80;92.20
18998;DHT22;9632;51.018;4.284;2022-08-03T13:19:38;33.80;92.00
18998;DHT22;9632;51.018;4.284;2022-08-03T13:22:15;33.80;92.10
18998;DHT22;9632;51.018;4.284;2022-08-03T13:24:43;33.80;92.50
18998;DHT22;9632;51.018;4.284;2022-08-03T13:27:09;33.80;92.40
18998;DHT22;9632;51.018;4.284;2022-08-03T13:29:34;33.90;92.10
18998;DHT22;9632;51.018;4.284;2022-08-03T13:32:01;34.00;92.40
18998;DHT22;9632;51.018;4.284;2022-08-03T13:34:27;34.00;92.40
18998;DHT22;9632;51.018;4.284;2022-08-03T13:36:53;34.10;92.40
18998;DHT22;9632;51.018;4.284;2022-08-03T13:39:19;34.10;91.60
18998;DHT22;9632;51.018;4.284;2022-08-03T13:41:45;34.10;91.90
18998;DHT22;9632;51.018;4.284;2022-08-03T13:44:11;34.20;92.30
18998;DHT22;9632;51.018;4.284;2022-08-03T13:46:37;34.20;91.60
18998;DHT22;9632;51.018;4.284;2022-08-03T13:49:03;34.20;91.10
18998;DHT22;9632;51.018;4.284;2022-08-03T13:51:29;34.10;91.00
18998;DHT22;9632;51.018;4.284;2022-08-03T13:53:54;34.00;91.40
18998;DHT22;9632;51.018;4.284;2022-08-03T13:56:21;34.00;91.60
18998;DHT22;9632;51.018;4.284;2022-08-03T13:58:47;34.00;91.70
18998;DHT22;9632;51.018;4.284;2022-08-03T14:01:12;34.00;91.40
18998;DHT22;9632;51.018;4.284;2022-08-03T14:03:38;33.90;92.00
18998;DHT22;9632;51.018;4.284;2022-08-03T14:06:04;33.80;91.10
18998;DHT22;9632;51.018;4.284;2022-08-03T14:08:29;33.70;91.30
18998;DHT22;9632;51.018;4.284;2022-08-03T14:10:55;33.70;90.90
18998;DHT22;9632;51.018;4.284;2022-08-03T14:13:20;33.70;90.80
18998;DHT22;9632;51.018;4.284;2022-08-03T14:15:47;33.80;91.60
18998;DHT22;9632;51.018;4.284;2022-08-03T14:18:13;33.70;91.50
18998;DHT22;9632;51.018;4.284;2022-08-03T14:20:38;33.70;91.40
18998;DHT22;9632;51.018;4.284;2022-08-03T14:23:04;33.70;90.80
18998;DHT22;9632;51.018;4.284;2022-08-03T14:25:31;33.60;90.80
18998;DHT22;9632;51.018;4.284;2022-08-03T14:27:57;33.60;91.40
18998;DHT22;9632;51.018;4.284;2022-08-03T14:30:22;33.50;90.90
18998;DHT22;9632;51.018;4.284;2022-08-03T14:32:48;33.60;91.00
18998;DHT22;9632;51.018;4.284;2022-08-03T14:35:13;33.60;89.70
18998;DHT22;9632;51.018;4.284;2022-08-03T14:37:39;33.60;90.50
18998;DHT22;9632;51.018;4.284;2022-08-03T14:40:05;33.70;91.50
18998;DHT22;9632;51.018;4.284;2022-08-03T14:42:31;33.80;91.30
18998;DHT22;9632;51.018;4.284;2022-08-03T14:44:56;33.70;91.00
18998;DHT22;9632;51.018;4.284;2022-08-03T14:47:22;33.70;91.40
18998;DHT22;9632;51.018;4.284;2022-08-03T14:49:48;33.70;91.40
18998;DHT22;9632;51.018;4.284;2022-08-03T14:52:13;33.60;90.40
18998;DHT22;9632;51.018;4.284;2022-08-03T14:54:39;33.50;90.50
18998;DHT22;9632;51.018;4.284;2022-08-03T14:57:05;33.40;90.80
18998;DHT22;9632;51.018;4.284;2022-08-03T14:59:30;33.50;91.50
18998;DHT22;9632;51.018;4.284;2022-08-03T15:01:56;33.40;90.60
18998;DHT22;9632;51.018;4.284;2022-08-03T15:04:22;33.50;91.10
18998;DHT22;9632;51.018;4.284;2022-08-03T15:06:47;33.60;91.40
18998;DHT22;9632;51.018;4.284;2022-08-03T15:09:13;33.60;89.80
18998;DHT22;9632;51.018;4.284;2022-08-03T15:11:39;33.60;90.80
18998;DHT22;9632;51.018;4.284;2022-08-03T15:14:05;33.60;90.30
18998;DHT22;9632;51.018;4.284;2022-08-03T15:16:30;33.70;90.50
18998;DHT22;9632;51.018;4.284;2022-08-03T15:18:56;33.70;91.10
18998;DHT22;9632;51.018;4.284;2022-08-03T15:21:22;33.70;90.40
18998;DHT22;9632;51.018;4.284;2022-08-03T15:23:47;33.70;90.20
18998;DHT22;9632;51.018;4.284;2022-08-03T15:26:13;33.70;90.20
18998;DHT22;9632;51.018;4.284;2022-08-03T15:28:39;33.70;90.60
18998;DHT22;9632;51.018;4.284;2022-08-03T15:31:04;33.60;89.40
18998;DHT22;9632;51.018;4.284;2022-08-03T15:33:31;33.60;90.40
18998;DHT22;9632;51.018;4.284;2022-08-03T15:35:56;33.60;89.50
18998;DHT22;9632;51.018;4.284;2022-08-03T15:38:22;33.50;90.00
18998;DHT22;9632;51.018;4.284;2022-08-03T15:40:48;33.50;90.30
18998;DHT22;9632;51.018;4.284;2022-08-03T15:43:13;33.50;90.00
18998;DHT22;9632;51.018;4.284;2022-08-03T15:45:39;33.50;89.20
18998;DHT22;9632;51.018;4.284;2022-08-03T15:48:05;33.40;89.40
18998;DHT22;9632;51.018;4.284;2022-08-03T15:50:31;33.40;90.50
18998;DHT22;9632;51.018;4.284;2022-08-03T15:52:57;33.40;90.30
18998;DHT22;9632;51.018;4.284;2022-08-03T15:55:23;33.50;90.70
18998;DHT22;9632;51.018;4.284;2022-08-03T15:57:49;33.50;90.10
18998;DHT22;9632;51.018;4.284;2022-08-03T16:00:14;33.50;88.80
18998;DHT22;9632;51.018;4.284;2022-08-03T16:02:40;33.30;90.50
18998;DHT22;9632;51.018;4.284;2022-08-03T16:05:06;33.30;91.30
18998;DHT22;9632;51.018;4.284;2022-08-03T16:07:32;33.40;91.00
18998;DHT22;9632;51.018;4.284;2022-08-03T16:10:08;33.40;91.20
18998;DHT22;9632;51.018;4.284;2022-08-03T16:12:34;33.40;90.50
18998;DHT22;9632;51.018;4.284;2022-08-03T16:15:00;33.30;90.40
18998;DHT22;9632;51.018;4.284;2022-08-03T16:17:26;33.30;90.90
18998;DHT22;9632;51.018;4.284;2022-08-03T16:19:52;33.20;90.60
18998;DHT22;9632;51.018;4.284;2022-08-03T16:22:18;33.20;91.00
18998;DHT22;9632;51.018;4.284;2022-08-03T16:24:43;33.30;90.80
18998;DHT22;9632;51.018;4.284;2022-08-03T16:27:09;33.20;90.50
18998;DHT22;9632;51.018;4.284;2022-08-03T16:29:35;33.20;90.40
18998;DHT22;9632;51.018;4.284;2022-08-03T16:32:00;33.20;90.50
18998;DHT22;9632;51.018;4.284;2022-08-03T16:34:32;33.20;90.70
18998;DHT22;9632;51.018;4.284;2022-08-03T16:36:57;33.20;91.00
18998;DHT22;9632;51.018;4.284;2022-08-03T16:39:23;33.20;91.00
18998;DHT22;9632;51.018;4.284;2022-08-03T16:41:49;33.20;91.00
18998;DHT22;9632;51.018;4.284;2022-08-03T16:44:14;33.10;91.50